Ponemah, Minnesota
Current Conditions -  °F | °C
As of 11:12 AM on Sunday 23 Nov 2014 (Local Time) from KVWU Reporting Station
Haze Haze  
Wind Chill: 36°   Ceiling: 500
Heat Index: 36°   Visibility: 3mi
Dew Point: 34°   Wind: 3mph
Humidity: 93%   Direction: 170°S
Pressure: 29.4"   Gusts: NA
Location:  48.01°N, 94.93°W
Report Text: KVWU 231712Z AUTO 17003KT 3SM BR OVC005 02/01 A2940 RMK AO2
Loading
Personal Weather Stations






























Interactive Weather Map New forecast layout! Learn more

10-Day Weather Forecast

Advertisements
Track Severe Weather on mobile